KHRI

Hermiston Municipal Airport

Hermiston, Oregon, USA
METAR KHRI 191853Z AUTO 00000KT 10SM CLR 14/06 A3036 RMK AO2 SLP282 T01390056
Observed Flight Rules
Oct-19 @ 18:53 UTC (60 minutes ago) Visual Flight Rules
Visibility Clouds
10 miles
  • Clear skies
Temperatures Readings
Current 14°C / 57°F
Dewpoint 6°C / 43°F
Humidity 59%
Altimeter 30.36" Hg
Pressure 1028.2 hPa
Elevation 195
METAR KHRI 191853Z AUTO 00000KT 10SM CLR 14/06 A3036 RMK AO2 SLP282 T01390056
Observed Flight Rules
Oct-19 @ 18:53 UTC
(60 minutes ago)
VFR
Clouds
  • Clear skies
Temperature Dewpoint
14°C / 57°F 6°C / 43°F
Humidity Altimeter Pressure
59% 30.36" Hg 1028.2 hPa